sensor_id;sensor_type;location;lat;lon;timestamp;P1;durP1;ratioP1;P2;durP2;ratioP2
57389;SDS011;43217;52.694;6.214;2023-04-23T00:01:24;60.97;;;38.95;;
57389;SDS011;43217;52.694;6.214;2023-04-23T00:03:51;59.10;;;38.97;;
57389;SDS011;43217;52.694;6.214;2023-04-23T00:06:21;64.93;;;39.90;;
57389;SDS011;43217;52.694;6.214;2023-04-23T00:08:47;68.78;;;42.67;;
57389;SDS011;43217;52.694;6.214;2023-04-23T00:11:16;67.40;;;43.28;;
57389;SDS011;43217;52.694;6.214;2023-04-23T00:13:42;79.40;;;44.50;;
57389;SDS011;43217;52.694;6.214;2023-04-23T00:16:08;73.60;;;43.20;;
57389;SDS011;43217;52.694;6.214;2023-04-23T00:18:36;88.38;;;47.13;;
57389;SDS011;43217;52.694;6.214;2023-04-23T00:21:01;89.25;;;50.03;;
57389;SDS011;43217;52.694;6.214;2023-04-23T00:23:27;87.47;;;50.72;;
57389;SDS011;43217;52.694;6.214;2023-04-23T00:25:53;84.50;;;49.88;;
57389;SDS011;43217;52.694;6.214;2023-04-23T00:28:18;88.68;;;52.38;;
57389;SDS011;43217;52.694;6.214;2023-04-23T00:30:44;95.20;;;54.45;;
57389;SDS011;43217;52.694;6.214;2023-04-23T00:33:10;120.10;;;59.10;;
57389;SDS011;43217;52.694;6.214;2023-04-23T00:35:36;109.93;;;58.13;;
57389;SDS011;43217;52.694;6.214;2023-04-23T00:38:01;127.43;;;64.00;;
57389;SDS011;43217;52.694;6.214;2023-04-23T00:40:27;147.77;;;65.28;;
57389;SDS011;43217;52.694;6.214;2023-04-23T00:42:53;138.38;;;64.55;;
57389;SDS011;43217;52.694;6.214;2023-04-23T00:45:20;133.18;;;63.47;;
57389;SDS011;43217;52.694;6.214;2023-04-23T00:47:46;142.27;;;68.15;;
57389;SDS011;43217;52.694;6.214;2023-04-23T00:50:13;139.73;;;67.82;;
57389;SDS011;43217;52.694;6.214;2023-04-23T00:52:39;162.52;;;72.20;;
57389;SDS011;43217;52.694;6.214;2023-04-23T00:55:05;138.63;;;70.70;;
57389;SDS011;43217;52.694;6.214;2023-04-23T00:57:32;143.70;;;68.60;;
57389;SDS011;43217;52.694;6.214;2023-04-23T01:00:01;142.68;;;73.90;;
57389;SDS011;43217;52.694;6.214;2023-04-23T01:02:28;142.65;;;71.90;;
57389;SDS011;43217;52.694;6.214;2023-04-23T01:04:56;147.82;;;74.32;;
57389;SDS011;43217;52.694;6.214;2023-04-23T01:07:23;168.85;;;78.93;;
57389;SDS011;43217;52.694;6.214;2023-04-23T01:09:51;154.40;;;77.57;;
57389;SDS011;43217;52.694;6.214;2023-04-23T01:12:17;166.82;;;79.22;;
57389;SDS011;43217;52.694;6.214;2023-04-23T01:14:43;147.77;;;75.88;;
57389;SDS011;43217;52.694;6.214;2023-04-23T01:17:09;149.10;;;76.43;;
57389;SDS011;43217;52.694;6.214;2023-04-23T01:19:36;162.55;;;77.75;;
57389;SDS011;43217;52.694;6.214;2023-04-23T01:22:02;155.43;;;76.13;;
57389;SDS011;43217;52.694;6.214;2023-04-23T01:24:38;160.77;;;77.22;;
57389;SDS011;43217;52.694;6.214;2023-04-23T01:27:05;150.77;;;74.50;;
57389;SDS011;43217;52.694;6.214;2023-04-23T01:29:31;167.27;;;79.18;;
57389;SDS011;43217;52.694;6.214;2023-04-23T01:31:58;156.67;;;76.57;;
57389;SDS011;43217;52.694;6.214;2023-04-23T01:34:24;154.77;;;77.60;;
57389;SDS011;43217;52.694;6.214;2023-04-23T01:36:50;167.68;;;78.72;;
57389;SDS011;43217;52.694;6.214;2023-04-23T01:39:17;156.45;;;77.78;;
57389;SDS011;43217;52.694;6.214;2023-04-23T01:41:43;156.93;;;75.40;;
57389;SDS011;43217;52.694;6.214;2023-04-23T01:44:09;141.23;;;76.32;;
57389;SDS011;43217;52.694;6.214;2023-04-23T01:46:34;164.73;;;77.30;;
57389;SDS011;43217;52.694;6.214;2023-04-23T01:49:00;153.48;;;74.85;;
57389;SDS011;43217;52.694;6.214;2023-04-23T01:51:28;157.50;;;76.68;;
57389;SDS011;43217;52.694;6.214;2023-04-23T01:53:53;133.00;;;73.07;;
57389;SDS011;43217;52.694;6.214;2023-04-23T01:56:21;150.00;;;75.53;;
57389;SDS011;43217;52.694;6.214;2023-04-23T01:58:49;162.50;;;77.03;;
57389;SDS011;43217;52.694;6.214;2023-04-23T02:01:15;160.00;;;76.45;;
57389;SDS011;43217;52.694;6.214;2023-04-23T02:03:41;150.70;;;75.15;;
57389;SDS011;43217;52.694;6.214;2023-04-23T02:06:07;155.70;;;76.75;;
57389;SDS011;43217;52.694;6.214;2023-04-23T02:08:34;163.73;;;76.80;;
57389;SDS011;43217;52.694;6.214;2023-04-23T02:10:59;147.98;;;75.35;;
57389;SDS011;43217;52.694;6.214;2023-04-23T02:13:25;158.73;;;79.53;;
57389;SDS011;43217;52.694;6.214;2023-04-23T02:15:51;168.35;;;76.50;;
57389;SDS011;43217;52.694;6.214;2023-04-23T02:18:16;131.43;;;72.15;;
57389;SDS011;43217;52.694;6.214;2023-04-23T02:20:42;136.25;;;72.97;;
57389;SDS011;43217;52.694;6.214;2023-04-23T02:23:08;150.50;;;78.22;;
57389;SDS011;43217;52.694;6.214;2023-04-23T02:25:34;154.45;;;76.65;;
57389;SDS011;43217;52.694;6.214;2023-04-23T02:28:02;169.73;;;79.53;;
57389;SDS011;43217;52.694;6.214;2023-04-23T02:30:31;163.68;;;77.97;;
57389;SDS011;43217;52.694;6.214;2023-04-23T02:32:57;189.15;;;80.22;;
57389;SDS011;43217;52.694;6.214;2023-04-23T02:35:23;177.48;;;79.53;;
57389;SDS011;43217;52.694;6.214;2023-04-23T02:37:49;183.05;;;79.13;;
57389;SDS011;43217;52.694;6.214;2023-04-23T02:40:15;148.80;;;75.10;;
57389;SDS011;43217;52.694;6.214;2023-04-23T02:42:41;166.75;;;76.38;;
57389;SDS011;43217;52.694;6.214;2023-04-23T02:45:06;159.82;;;77.22;;
57389;SDS011;43217;52.694;6.214;2023-04-23T02:47:32;167.98;;;79.53;;
57389;SDS011;43217;52.694;6.214;2023-04-23T02:49:58;137.45;;;72.93;;
57389;SDS011;43217;52.694;6.214;2023-04-23T02:52:28;163.98;;;79.82;;
57389;SDS011;43217;52.694;6.214;2023-04-23T02:54:53;178.90;;;82.50;;
57389;SDS011;43217;52.694;6.214;2023-04-23T02:57:19;179.88;;;80.50;;
57389;SDS011;43217;52.694;6.214;2023-04-23T02:59:45;171.43;;;78.70;;
57389;SDS011;43217;52.694;6.214;2023-04-23T03:02:11;175.52;;;81.82;;
57389;SDS011;43217;52.694;6.214;2023-04-23T03:04:37;160.52;;;79.20;;
57389;SDS011;43217;52.694;6.214;2023-04-23T03:07:02;193.88;;;82.22;;
57389;SDS011;43217;52.694;6.214;2023-04-23T03:09:28;182.68;;;77.63;;
57389;SDS011;43217;52.694;6.214;2023-04-23T03:11:54;204.68;;;81.18;;
57389;SDS011;43217;52.694;6.214;2023-04-23T03:14:21;173.20;;;76.18;;
57389;SDS011;43217;52.694;6.214;2023-04-23T03:16:47;310.67;;;84.90;;
57389;SDS011;43217;52.694;6.214;2023-04-23T03:19:13;216.85;;;79.20;;
57389;SDS011;43217;52.694;6.214;2023-04-23T03:21:39;312.52;;;85.63;;
57389;SDS011;43217;52.694;6.214;2023-04-23T03:24:04;251.25;;;81.47;;
57389;SDS011;43217;52.694;6.214;2023-04-23T03:26:30;247.60;;;77.53;;
57389;SDS011;43217;52.694;6.214;2023-04-23T03:28:56;221.65;;;78.20;;
57389;SDS011;43217;52.694;6.214;2023-04-23T03:31:21;188.30;;;73.35;;
57389;SDS011;43217;52.694;6.214;2023-04-23T03:33:47;176.57;;;72.80;;
57389;SDS011;43217;52.694;6.214;2023-04-23T03:36:13;147.38;;;68.07;;
57389;SDS011;43217;52.694;6.214;2023-04-23T03:38:39;197.80;;;74.25;;
57389;SDS011;43217;52.694;6.214;2023-04-23T03:41:05;172.15;;;71.32;;
57389;SDS011;43217;52.694;6.214;2023-04-23T03:43:30;184.80;;;70.50;;
57389;SDS011;43217;52.694;6.214;2023-04-23T03:45:56;172.18;;;69.43;;
57389;SDS011;43217;52.694;6.214;2023-04-23T03:48:22;248.95;;;77.28;;
57389;SDS011;43217;52.694;6.214;2023-04-23T03:50:47;135.95;;;65.00;;
57389;SDS011;43217;52.694;6.214;2023-04-23T03:53:13;337.98;;;84.82;;
57389;SDS011;43217;52.694;6.214;2023-04-23T03:55:39;177.82;;;72.78;;
57389;SDS011;43217;52.694;6.214;2023-04-23T03:58:04;285.70;;;82.45;;
57389;SDS011;43217;52.694;6.214;2023-04-23T04:00:30;159.70;;;71.68;;
57389;SDS011;43217;52.694;6.214;2023-04-23T04:02:55;178.05;;;72.75;;
57389;SDS011;43217;52.694;6.214;2023-04-23T04:05:21;177.57;;;74.93;;
57389;SDS011;43217;52.694;6.214;2023-04-23T04:07:47;174.30;;;75.97;;
57389;SDS011;43217;52.694;6.214;2023-04-23T04:10:13;153.00;;;73.43;;
57389;SDS011;43217;52.694;6.214;2023-04-23T04:12:39;172.13;;;79.75;;
57389;SDS011;43217;52.694;6.214;2023-04-23T04:15:06;181.20;;;80.43;;
57389;SDS011;43217;52.694;6.214;2023-04-23T04:17:32;182.00;;;81.40;;
57389;SDS011;43217;52.694;6.214;2023-04-23T04:19:58;169.02;;;77.18;;
57389;SDS011;43217;52.694;6.214;2023-04-23T04:22:23;228.35;;;86.63;;
57389;SDS011;43217;52.694;6.214;2023-04-23T04:24:50;191.77;;;82.50;;
57389;SDS011;43217;52.694;6.214;2023-04-23T04:27:17;201.38;;;83.80;;
57389;SDS011;43217;52.694;6.214;2023-04-23T04:29:42;164.13;;;77.82;;
57389;SDS011;43217;52.694;6.214;2023-04-23T04:32:08;159.00;;;76.13;;
57389;SDS011;43217;52.694;6.214;2023-04-23T04:34:36;183.15;;;80.93;;
57389;SDS011;43217;52.694;6.214;2023-04-23T04:37:03;139.40;;;75.75;;
57389;SDS011;43217;52.694;6.214;2023-04-23T04:39:28;162.10;;;76.50;;
57389;SDS011;43217;52.694;6.214;2023-04-23T04:41:54;160.68;;;78.35;;
57389;SDS011;43217;52.694;6.214;2023-04-23T04:44:21;141.85;;;71.90;;
57389;SDS011;43217;52.694;6.214;2023-04-23T04:46:47;142.27;;;74.07;;
57389;SDS011;43217;52.694;6.214;2023-04-23T04:49:12;126.22;;;68.65;;
57389;SDS011;43217;52.694;6.214;2023-04-23T04:51:38;129.00;;;69.85;;
57389;SDS011;43217;52.694;6.214;2023-04-23T04:54:05;130.18;;;71.25;;
57389;SDS011;43217;52.694;6.214;2023-04-23T04:56:32;135.10;;;72.13;;
57389;SDS011;43217;52.694;6.214;2023-04-23T04:58:58;140.13;;;71.65;;
57389;SDS011;43217;52.694;6.214;2023-04-23T05:01:25;141.30;;;73.60;;
57389;SDS011;43217;52.694;6.214;2023-04-23T05:03:53;153.82;;;75.80;;
57389;SDS011;43217;52.694;6.214;2023-04-23T05:06:19;149.00;;;76.57;;
57389;SDS011;43217;52.694;6.214;2023-04-23T05:08:45;138.45;;;73.15;;
57389;SDS011;43217;52.694;6.214;2023-04-23T05:11:18;151.43;;;78.82;;
57389;SDS011;43217;52.694;6.214;2023-04-23T05:13:45;132.07;;;73.10;;
57389;SDS011;43217;52.694;6.214;2023-04-23T05:16:11;146.57;;;78.00;;
57389;SDS011;43217;52.694;6.214;2023-04-23T05:18:37;131.25;;;70.13;;
57389;SDS011;43217;52.694;6.214;2023-04-23T05:21:04;135.05;;;73.28;;
57389;SDS011;43217;52.694;6.214;2023-04-23T05:23:30;133.45;;;74.32;;
57389;SDS011;43217;52.694;6.214;2023-04-23T05:25:56;136.45;;;73.88;;
57389;SDS011;43217;52.694;6.214;2023-04-23T05:28:23;130.55;;;73.57;;
57389;SDS011;43217;52.694;6.214;2023-04-23T05:30:49;135.40;;;74.65;;
57389;SDS011;43217;52.694;6.214;2023-04-23T05:33:15;127.68;;;71.57;;
57389;SDS011;43217;52.694;6.214;2023-04-23T05:35:40;121.60;;;70.45;;
57389;SDS011;43217;52.694;6.214;2023-04-23T05:38:06;123.20;;;67.57;;
57389;SDS011;43217;52.694;6.214;2023-04-23T05:40:32;115.30;;;67.95;;
57389;SDS011;43217;52.694;6.214;2023-04-23T05:42:58;110.40;;;65.80;;
57389;SDS011;43217;52.694;6.214;2023-04-23T05:45:24;107.35;;;63.83;;
57389;SDS011;43217;52.694;6.214;2023-04-23T05:47:49;97.55;;;61.13;;
57389;SDS011;43217;52.694;6.214;2023-04-23T05:50:16;103.65;;;61.97;;
57389;SDS011;43217;52.694;6.214;2023-04-23T05:52:42;96.50;;;60.58;;
57389;SDS011;43217;52.694;6.214;2023-04-23T05:55:07;100.07;;;60.25;;
57389;SDS011;43217;52.694;6.214;2023-04-23T05:57:34;96.82;;;61.28;;
57389;SDS011;43217;52.694;6.214;2023-04-23T06:00:00;82.83;;;54.93;;
57389;SDS011;43217;52.694;6.214;2023-04-23T06:02:26;86.68;;;55.85;;
57389;SDS011;43217;52.694;6.214;2023-04-23T06:04:53;76.25;;;53.33;;
57389;SDS011;43217;52.694;6.214;2023-04-23T06:07:18;68.82;;;49.47;;
57389;SDS011;43217;52.694;6.214;2023-04-23T06:09:44;67.35;;;48.70;;
57389;SDS011;43217;52.694;6.214;2023-04-23T06:12:10;69.57;;;49.78;;
57389;SDS011;43217;52.694;6.214;2023-04-23T06:14:36;59.95;;;46.22;;
57389;SDS011;43217;52.694;6.214;2023-04-23T06:17:01;60.10;;;47.72;;
57389;SDS011;43217;52.694;6.214;2023-04-23T06:19:27;54.60;;;44.28;;
57389;SDS011;43217;52.694;6.214;2023-04-23T06:21:54;54.92;;;43.83;;
57389;SDS011;43217;52.694;6.214;2023-04-23T06:24:20;54.58;;;43.22;;
57389;SDS011;43217;52.694;6.214;2023-04-23T06:26:45;56.58;;;42.92;;
57389;SDS011;43217;52.694;6.214;2023-04-23T06:29:11;52.22;;;41.95;;
57389;SDS011;43217;52.694;6.214;2023-04-23T06:31:36;53.30;;;41.65;;
57389;SDS011;43217;52.694;6.214;2023-04-23T06:34:03;52.00;;;39.90;;
57389;SDS011;43217;52.694;6.214;2023-04-23T06:36:29;47.20;;;39.25;;
57389;SDS011;43217;52.694;6.214;2023-04-23T06:38:54;46.13;;;39.03;;
57389;SDS011;43217;52.694;6.214;2023-04-23T06:41:20;43.67;;;37.83;;
57389;SDS011;43217;52.694;6.214;2023-04-23T06:43:46;43.03;;;37.25;;
57389;SDS011;43217;52.694;6.214;2023-04-23T06:46:12;41.70;;;37.00;;
57389;SDS011;43217;52.694;6.214;2023-04-23T06:48:38;42.92;;;37.67;;
57389;SDS011;43217;52.694;6.214;2023-04-23T06:51:04;38.92;;;34.35;;
57389;SDS011;43217;52.694;6.214;2023-04-23T06:53:30;38.67;;;34.47;;
57389;SDS011;43217;52.694;6.214;2023-04-23T06:55:56;37.72;;;33.63;;
57389;SDS011;43217;52.694;6.214;2023-04-23T06:58:22;37.53;;;32.70;;
57389;SDS011;43217;52.694;6.214;2023-04-23T07:00:51;40.22;;;35.03;;
57389;SDS011;43217;52.694;6.214;2023-04-23T07:03:17;37.03;;;33.03;;
57389;SDS011;43217;52.694;6.214;2023-04-23T07:05:43;38.58;;;34.15;;
57389;SDS011;43217;52.694;6.214;2023-04-23T07:08:09;37.42;;;33.28;;
57389;SDS011;43217;52.694;6.214;2023-04-23T07:10:35;38.00;;;33.90;;
57389;SDS011;43217;52.694;6.214;2023-04-23T07:13:01;38.50;;;33.70;;
57389;SDS011;43217;52.694;6.214;2023-04-23T07:15:26;36.70;;;32.90;;
57389;SDS011;43217;52.694;6.214;2023-04-23T07:17:52;36.80;;;32.88;;
57389;SDS011;43217;52.694;6.214;2023-04-23T07:20:17;35.75;;;31.85;;
57389;SDS011;43217;52.694;6.214;2023-04-23T07:22:44;34.67;;;30.90;;
57389;SDS011;43217;52.694;6.214;2023-04-23T07:25:11;35.78;;;32.15;;
57389;SDS011;43217;52.694;6.214;2023-04-23T07:27:37;33.95;;;30.42;;
57389;SDS011;43217;52.694;6.214;2023-04-23T07:30:02;34.70;;;31.00;;
57389;SDS011;43217;52.694;6.214;2023-04-23T07:32:29;33.15;;;29.55;;
57389;SDS011;43217;52.694;6.214;2023-04-23T07:34:55;34.00;;;30.40;;
57389;SDS011;43217;52.694;6.214;2023-04-23T07:37:21;33.20;;;29.70;;
57389;SDS011;43217;52.694;6.214;2023-04-23T07:39:47;31.63;;;28.35;;
57389;SDS011;43217;52.694;6.214;2023-04-23T07:42:13;32.15;;;28.85;;
57389;SDS011;43217;52.694;6.214;2023-04-23T07:44:38;31.23;;;27.90;;
57389;SDS011;43217;52.694;6.214;2023-04-23T07:47:04;31.33;;;28.20;;
57389;SDS011;43217;52.694;6.214;2023-04-23T07:49:29;31.15;;;28.08;;
57389;SDS011;43217;52.694;6.214;2023-04-23T07:51:55;29.77;;;26.67;;
57389;SDS011;43217;52.694;6.214;2023-04-23T07:54:21;29.55;;;26.45;;
57389;SDS011;43217;52.694;6.214;2023-04-23T07:56:46;27.42;;;24.73;;
57389;SDS011;43217;52.694;6.214;2023-04-23T07:59:12;28.38;;;25.58;;
57389;SDS011;43217;52.694;6.214;2023-04-23T08:01:38;28.05;;;25.30;;
57389;SDS011;43217;52.694;6.214;2023-04-23T08:04:03;27.20;;;24.50;;
57389;SDS011;43217;52.694;6.214;2023-04-23T08:06:29;25.80;;;23.30;;
57389;SDS011;43217;52.694;6.214;2023-04-23T08:08:57;24.95;;;22.48;;
57389;SDS011;43217;52.694;6.214;2023-04-23T08:11:24;25.15;;;22.55;;
57389;SDS011;43217;52.694;6.214;2023-04-23T08:13:51;25.52;;;23.05;;
57389;SDS011;43217;52.694;6.214;2023-04-23T08:16:17;24.58;;;22.13;;
57389;SDS011;43217;52.694;6.214;2023-04-23T08:18:43;23.75;;;21.45;;
57389;SDS011;43217;52.694;6.214;2023-04-23T08:21:09;22.77;;;20.38;;
57389;SDS011;43217;52.694;6.214;2023-04-23T08:23:36;23.20;;;20.90;;
57389;SDS011;43217;52.694;6.214;2023-04-23T08:26:02;21.17;;;19.08;;
57389;SDS011;43217;52.694;6.214;2023-04-23T08:28:28;21.05;;;18.98;;
57389;SDS011;43217;52.694;6.214;2023-04-23T08:30:54;19.92;;;17.80;;
57389;SDS011;43217;52.694;6.214;2023-04-23T08:33:20;20.25;;;18.17;;
57389;SDS011;43217;52.694;6.214;2023-04-23T08:35:46;19.23;;;17.27;;
57389;SDS011;43217;52.694;6.214;2023-04-23T08:38:12;18.67;;;16.77;;
57389;SDS011;43217;52.694;6.214;2023-04-23T08:40:37;16.08;;;14.38;;
57389;SDS011;43217;52.694;6.214;2023-04-23T08:43:11;17.00;;;15.20;;
57389;SDS011;43217;52.694;6.214;2023-04-23T08:45:40;18.38;;;16.27;;
57389;SDS011;43217;52.694;6.214;2023-04-23T08:48:10;17.75;;;15.95;;
57389;SDS011;43217;52.694;6.214;2023-04-23T08:50:36;15.88;;;14.05;;
57389;SDS011;43217;52.694;6.214;2023-04-23T08:53:03;16.45;;;14.15;;
57389;SDS011;43217;52.694;6.214;2023-04-23T09:00:23;15.90;;;14.20;;
57389;SDS011;43217;52.694;6.214;2023-04-23T09:02:50;16.25;;;14.55;;
57389;SDS011;43217;52.694;6.214;2023-04-23T09:05:16;16.63;;;14.93;;
57389;SDS011;43217;52.694;6.214;2023-04-23T09:07:42;16.10;;;14.43;;
57389;SDS011;43217;52.694;6.214;2023-04-23T09:10:09;16.60;;;14.90;;
57389;SDS011;43217;52.694;6.214;2023-04-23T09:12:39;16.60;;;14.93;;
57389;SDS011;43217;52.694;6.214;2023-04-23T09:15:07;15.88;;;14.38;;
57389;SDS011;43217;52.694;6.214;2023-04-23T09:17:40;15.45;;;14.05;;
57389;SDS011;43217;52.694;6.214;2023-04-23T09:20:11;14.90;;;12.80;;
57389;SDS011;43217;52.694;6.214;2023-04-23T09:25:05;14.77;;;13.27;;
57389;SDS011;43217;52.694;6.214;2023-04-23T09:27:33;15.90;;;14.40;;
57389;SDS011;43217;52.694;6.214;2023-04-23T09:30:01;14.25;;;12.85;;
57389;SDS011;43217;52.694;6.214;2023-04-23T09:32:31;12.55;;;11.25;;
57389;SDS011;43217;52.694;6.214;2023-04-23T09:34:58;14.18;;;12.75;;
57389;SDS011;43217;52.694;6.214;2023-04-23T09:37:27;13.77;;;11.82;;
57389;SDS011;43217;52.694;6.214;2023-04-23T09:39:53;13.60;;;12.23;;
57389;SDS011;43217;52.694;6.214;2023-04-23T09:42:22;12.35;;;11.00;;
57389;SDS011;43217;52.694;6.214;2023-04-23T09:44:59;12.23;;;11.02;;
57389;SDS011;43217;52.694;6.214;2023-04-23T09:47:37;12.05;;;10.77;;
57389;SDS011;43217;52.694;6.214;2023-04-23T09:50:03;14.45;;;12.35;;
57389;SDS011;43217;52.694;6.214;2023-04-23T09:52:30;13.13;;;11.80;;
57389;SDS011;43217;52.694;6.214;2023-04-23T09:54:57;14.75;;;10.88;;
57389;SDS011;43217;52.694;6.214;2023-04-23T09:57:26;12.25;;;11.05;;
57389;SDS011;43217;52.694;6.214;2023-04-23T09:59:55;13.35;;;12.05;;
57389;SDS011;43217;52.694;6.214;2023-04-23T10:02:25;12.07;;;10.77;;
57389;SDS011;43217;52.694;6.214;2023-04-23T10:04:53;10.88;;;9.68;;
57389;SDS011;43217;52.694;6.214;2023-04-23T10:07:19;11.40;;;8.60;;
57389;SDS011;43217;52.694;6.214;2023-04-23T10:09:45;9.73;;;8.82;;
57389;SDS011;43217;52.694;6.214;2023-04-23T10:12:12;10.57;;;8.57;;
57389;SDS011;43217;52.694;6.214;2023-04-23T10:14:38;8.90;;;7.68;;
57389;SDS011;43217;52.694;6.214;2023-04-23T10:17:05;8.02;;;7.18;;
57389;SDS011;43217;52.694;6.214;2023-04-23T10:19:32;11.03;;;7.23;;
57389;SDS011;43217;52.694;6.214;2023-04-23T10:21:59;6.72;;;5.55;;
57389;SDS011;43217;52.694;6.214;2023-04-23T10:24:32;6.55;;;5.95;;
57389;SDS011;43217;52.694;6.214;2023-04-23T10:29:31;7.80;;;6.63;;
57389;SDS011;43217;52.694;6.214;2023-04-23T10:31:59;8.40;;;6.65;;
57389;SDS011;43217;52.694;6.214;2023-04-23T10:36:52;6.77;;;5.63;;
57389;SDS011;43217;52.694;6.214;2023-04-23T10:41:45;7.82;;;5.80;;
57389;SDS011;43217;52.694;6.214;2023-04-23T10:44:12;7.40;;;5.43;;
57389;SDS011;43217;52.694;6.214;2023-04-23T10:46:49;5.70;;;5.10;;
57389;SDS011;43217;52.694;6.214;2023-04-23T10:49:22;5.70;;;5.03;;
57389;SDS011;43217;52.694;6.214;2023-04-23T10:51:54;6.75;;;5.40;;
57389;SDS011;43217;52.694;6.214;2023-04-23T10:54:27;8.57;;;5.32;;
57389;SDS011;43217;52.694;6.214;2023-04-23T10:56:58;7.65;;;5.60;;
57389;SDS011;43217;52.694;6.214;2023-04-23T10:59:28;6.25;;;5.18;;
57389;SDS011;43217;52.694;6.214;2023-04-23T11:01:56;6.15;;;5.55;;
57389;SDS011;43217;52.694;6.214;2023-04-23T11:04:26;7.05;;;5.93;;
57389;SDS011;43217;52.694;6.214;2023-04-23T11:14:49;7.13;;;4.00;;
57389;SDS011;43217;52.694;6.214;2023-04-23T11:17:16;6.82;;;4.10;;
57389;SDS011;43217;52.694;6.214;2023-04-23T11:22:43;4.65;;;2.92;;
57389;SDS011;43217;52.694;6.214;2023-04-23T11:25:14;5.57;;;2.90;;
57389;SDS011;43217;52.694;6.214;2023-04-23T11:27:43;5.82;;;2.95;;
57389;SDS011;43217;52.694;6.214;2023-04-23T11:30:10;5.40;;;2.45;;
57389;SDS011;43217;52.694;6.214;2023-04-23T11:32:40;3.53;;;2.05;;
57389;SDS011;43217;52.694;6.214;2023-04-23T11:35:08;5.13;;;2.03;;
57389;SDS011;43217;52.694;6.214;2023-04-23T11:37:42;5.23;;;2.60;;
57389;SDS011;43217;52.694;6.214;2023-04-23T11:40:09;4.10;;;2.00;;
57389;SDS011;43217;52.694;6.214;2023-04-23T11:42:41;5.70;;;2.33;;
57389;SDS011;43217;52.694;6.214;2023-04-23T11:45:24;9.57;;;2.33;;
57389;SDS011;43217;52.694;6.214;2023-04-23T11:47:52;3.95;;;2.05;;
57389;SDS011;43217;52.694;6.214;2023-04-23T11:50:29;3.35;;;1.48;;
57389;SDS011;43217;52.694;6.214;2023-04-23T11:55:35;4.35;;;1.45;;
57389;SDS011;43217;52.694;6.214;2023-04-23T11:58:01;3.80;;;1.40;;
57389;SDS011;43217;52.694;6.214;2023-04-23T12:00:27;3.00;;;1.50;;
57389;SDS011;43217;52.694;6.214;2023-04-23T12:02:54;4.72;;;1.85;;
57389;SDS011;43217;52.694;6.214;2023-04-23T12:05:30;5.85;;;1.75;;
57389;SDS011;43217;52.694;6.214;2023-04-23T12:08:07;5.55;;;1.80;;
57389;SDS011;43217;52.694;6.214;2023-04-23T12:15:50;2.92;;;1.60;;
57389;SDS011;43217;52.694;6.214;2023-04-23T12:18:20;4.80;;;1.70;;
57389;SDS011;43217;52.694;6.214;2023-04-23T12:21:09;3.85;;;1.50;;
57389;SDS011;43217;52.694;6.214;2023-04-23T12:23:37;5.75;;;1.85;;
57389;SDS011;43217;52.694;6.214;2023-04-23T12:26:03;4.88;;;1.90;;
57389;SDS011;43217;52.694;6.214;2023-04-23T12:28:34;5.28;;;1.48;;
57389;SDS011;43217;52.694;6.214;2023-04-23T12:31:17;5.03;;;1.60;;
57389;SDS011;43217;52.694;6.214;2023-04-23T12:33:43;2.67;;;1.40;;
57389;SDS011;43217;52.694;6.214;2023-04-23T12:36:10;5.38;;;2.03;;
57389;SDS011;43217;52.694;6.214;2023-04-23T12:38:36;4.87;;;1.40;;
57389;SDS011;43217;52.694;6.214;2023-04-23T12:41:03;6.68;;;1.90;;
57389;SDS011;43217;52.694;6.214;2023-04-23T12:43:28;3.47;;;1.50;;
57389;SDS011;43217;52.694;6.214;2023-04-23T12:45:55;7.63;;;2.08;;
57389;SDS011;43217;52.694;6.214;2023-04-23T12:48:20;3.38;;;1.75;;
57389;SDS011;43217;52.694;6.214;2023-04-23T12:50:46;5.68;;;1.70;;
57389;SDS011;43217;52.694;6.214;2023-04-23T12:53:12;4.10;;;1.73;;
57389;SDS011;43217;52.694;6.214;2023-04-23T12:55:38;3.10;;;1.30;;
57389;SDS011;43217;52.694;6.214;2023-04-23T12:58:04;6.00;;;2.28;;
57389;SDS011;43217;52.694;6.214;2023-04-23T13:00:31;4.22;;;1.67;;
57389;SDS011;43217;52.694;6.214;2023-04-23T13:02:56;3.67;;;1.60;;
57389;SDS011;43217;52.694;6.214;2023-04-23T13:05:22;3.72;;;1.40;;
57389;SDS011;43217;52.694;6.214;2023-04-23T13:07:48;3.13;;;1.38;;
57389;SDS011;43217;52.694;6.214;2023-04-23T13:10:14;4.32;;;1.33;;
57389;SDS011;43217;52.694;6.214;2023-04-23T13:12:40;4.07;;;1.70;;
57389;SDS011;43217;52.694;6.214;2023-04-23T13:15:06;4.30;;;1.50;;
57389;SDS011;43217;52.694;6.214;2023-04-23T13:19:59;3.42;;;1.40;;
57389;SDS011;43217;52.694;6.214;2023-04-23T13:22:24;3.67;;;1.17;;
57389;SDS011;43217;52.694;6.214;2023-04-23T13:24:53;3.92;;;1.58;;
57389;SDS011;43217;52.694;6.214;2023-04-23T13:27:21;4.70;;;1.48;;
57389;SDS011;43217;52.694;6.214;2023-04-23T13:29:48;5.40;;;1.50;;
57389;SDS011;43217;52.694;6.214;2023-04-23T13:32:13;3.47;;;1.40;;
57389;SDS011;43217;52.694;6.214;2023-04-23T13:34:40;3.47;;;1.77;;
57389;SDS011;43217;52.694;6.214;2023-04-23T13:37:06;3.35;;;1.40;;
57389;SDS011;43217;52.694;6.214;2023-04-23T13:39:33;5.22;;;1.25;;
57389;SDS011;43217;52.694;6.214;2023-04-23T13:41:59;4.68;;;1.60;;
57389;SDS011;43217;52.694;6.214;2023-04-23T13:44:26;4.90;;;1.48;;
57389;SDS011;43217;52.694;6.214;2023-04-23T13:46:51;4.85;;;2.03;;
57389;SDS011;43217;52.694;6.214;2023-04-23T13:49:17;4.13;;;1.63;;
57389;SDS011;43217;52.694;6.214;2023-04-23T13:51:42;6.35;;;1.95;;
57389;SDS011;43217;52.694;6.214;2023-04-23T13:54:08;3.55;;;1.40;;
57389;SDS011;43217;52.694;6.214;2023-04-23T13:56:34;3.42;;;1.27;;
57389;SDS011;43217;52.694;6.214;2023-04-23T14:01:28;3.45;;;1.95;;
57389;SDS011;43217;52.694;6.214;2023-04-23T14:03:54;6.00;;;1.80;;
57389;SDS011;43217;52.694;6.214;2023-04-23T14:06:20;3.15;;;1.38;;
57389;SDS011;43217;52.694;6.214;2023-04-23T14:08:46;3.47;;;1.38;;
57389;SDS011;43217;52.694;6.214;2023-04-23T14:11:11;4.47;;;1.60;;
57389;SDS011;43217;52.694;6.214;2023-04-23T14:13:37;6.60;;;1.83;;
57389;SDS011;43217;52.694;6.214;2023-04-23T14:16:03;5.80;;;1.92;;
57389;SDS011;43217;52.694;6.214;2023-04-23T14:18:29;4.28;;;1.55;;
57389;SDS011;43217;52.694;6.214;2023-04-23T14:20:54;4.43;;;1.60;;
57389;SDS011;43217;52.694;6.214;2023-04-23T14:25:58;5.55;;;1.50;;
57389;SDS011;43217;52.694;6.214;2023-04-23T14:28:32;6.18;;;1.73;;
57389;SDS011;43217;52.694;6.214;2023-04-23T14:31:03;4.72;;;1.70;;
57389;SDS011;43217;52.694;6.214;2023-04-23T14:33:28;3.67;;;1.58;;
57389;SDS011;43217;52.694;6.214;2023-04-23T14:35:54;4.57;;;1.60;;
57389;SDS011;43217;52.694;6.214;2023-04-23T14:38:20;3.55;;;1.50;;
57389;SDS011;43217;52.694;6.214;2023-04-23T14:40:46;5.15;;;1.70;;
57389;SDS011;43217;52.694;6.214;2023-04-23T14:43:11;4.57;;;1.60;;
57389;SDS011;43217;52.694;6.214;2023-04-23T14:45:37;4.07;;;1.40;;
57389;SDS011;43217;52.694;6.214;2023-04-23T14:48:02;3.72;;;1.40;;
57389;SDS011;43217;52.694;6.214;2023-04-23T14:50:28;4.38;;;2.00;;
57389;SDS011;43217;52.694;6.214;2023-04-23T14:52:54;2.85;;;1.52;;
57389;SDS011;43217;52.694;6.214;2023-04-23T14:55:20;4.13;;;1.42;;
57389;SDS011;43217;52.694;6.214;2023-04-23T14:57:46;4.75;;;1.60;;
57389;SDS011;43217;52.694;6.214;2023-04-23T15:00:12;3.33;;;1.77;;
57389;SDS011;43217;52.694;6.214;2023-04-23T15:02:39;3.63;;;1.60;;